sensor_id;sensor_type;location;lat;lon;timestamp;P1;durP1;ratioP1;P2;durP2;ratioP2
4450;SDS011;2238;50.180;9.230;2023-03-24T00:01:13;4.00;;;3.60;;
4450;SDS011;2238;50.180;9.230;2023-03-24T00:04:14;4.60;;;3.90;;
4450;SDS011;2238;50.180;9.230;2023-03-24T00:07:15;3.10;;;2.90;;
4450;SDS011;2238;50.180;9.230;2023-03-24T00:10:17;3.87;;;3.47;;
4450;SDS011;2238;50.180;9.230;2023-03-24T00:13:19;4.10;;;3.63;;
4450;SDS011;2238;50.180;9.230;2023-03-24T00:16:21;3.60;;;3.30;;
4450;SDS011;2238;50.180;9.230;2023-03-24T00:19:21;5.40;;;4.03;;
4450;SDS011;2238;50.180;9.230;2023-03-24T00:22:22;6.40;;;4.27;;
4450;SDS011;2238;50.180;9.230;2023-03-24T00:25:27;4.47;;;4.07;;
4450;SDS011;2238;50.180;9.230;2023-03-24T00:28:33;7.33;;;3.97;;
4450;SDS011;2238;50.180;9.230;2023-03-24T00:31:36;4.43;;;4.03;;
4450;SDS011;2238;50.180;9.230;2023-03-24T00:34:38;5.40;;;5.00;;
4450;SDS011;2238;50.180;9.230;2023-03-24T00:37:40;5.03;;;4.63;;
4450;SDS011;2238;50.180;9.230;2023-03-24T00:40:44;4.70;;;4.30;;
4450;SDS011;2238;50.180;9.230;2023-03-24T00:43:46;3.97;;;3.67;;
4450;SDS011;2238;50.180;9.230;2023-03-24T00:46:48;4.90;;;4.43;;
4450;SDS011;2238;50.180;9.230;2023-03-24T00:49:56;4.87;;;4.37;;
4450;SDS011;2238;50.180;9.230;2023-03-24T00:52:56;5.17;;;4.67;;
4450;SDS011;2238;50.180;9.230;2023-03-24T00:56:00;4.47;;;4.07;;
4450;SDS011;2238;50.180;9.230;2023-03-24T00:59:02;4.37;;;3.97;;
4450;SDS011;2238;50.180;9.230;2023-03-24T01:02:03;4.73;;;4.17;;
4450;SDS011;2238;50.180;9.230;2023-03-24T01:05:05;4.90;;;4.40;;
4450;SDS011;2238;50.180;9.230;2023-03-24T01:08:06;4.50;;;3.73;;
4450;SDS011;2238;50.180;9.230;2023-03-24T01:11:07;4.50;;;4.10;;
4450;SDS011;2238;50.180;9.230;2023-03-24T01:14:10;5.30;;;4.80;;
4450;SDS011;2238;50.180;9.230;2023-03-24T01:17:11;5.20;;;4.50;;
4450;SDS011;2238;50.180;9.230;2023-03-24T01:20:12;4.53;;;4.03;;
4450;SDS011;2238;50.180;9.230;2023-03-24T01:23:15;4.13;;;3.83;;
4450;SDS011;2238;50.180;9.230;2023-03-24T01:26:18;4.37;;;3.97;;
4450;SDS011;2238;50.180;9.230;2023-03-24T01:29:19;4.50;;;4.00;;
4450;SDS011;2238;50.180;9.230;2023-03-24T01:32:20;3.73;;;3.43;;
4450;SDS011;2238;50.180;9.230;2023-03-24T01:35:21;4.00;;;3.70;;
4450;SDS011;2238;50.180;9.230;2023-03-24T01:38:24;3.73;;;3.37;;
4450;SDS011;2238;50.180;9.230;2023-03-24T01:41:30;4.70;;;4.30;;
4450;SDS011;2238;50.180;9.230;2023-03-24T01:44:35;4.33;;;3.90;;
4450;SDS011;2238;50.180;9.230;2023-03-24T01:47:37;5.17;;;4.07;;
4450;SDS011;2238;50.180;9.230;2023-03-24T01:50:37;4.50;;;3.90;;
4450;SDS011;2238;50.180;9.230;2023-03-24T01:53:43;4.23;;;3.93;;
4450;SDS011;2238;50.180;9.230;2023-03-24T02:00:12;4.23;;;3.80;;
4450;SDS011;2238;50.180;9.230;2023-03-24T02:03:17;4.33;;;3.80;;
4450;SDS011;2238;50.180;9.230;2023-03-24T02:06:21;3.87;;;3.57;;
4450;SDS011;2238;50.180;9.230;2023-03-24T02:09:25;4.33;;;3.93;;
4450;SDS011;2238;50.180;9.230;2023-03-24T02:12:25;6.80;;;3.93;;
4450;SDS011;2238;50.180;9.230;2023-03-24T02:15:27;4.30;;;3.50;;
4450;SDS011;2238;50.180;9.230;2023-03-24T02:18:35;4.70;;;4.30;;
4450;SDS011;2238;50.180;9.230;2023-03-24T02:48:40;3.70;;;3.40;;
4450;SDS011;2238;50.180;9.230;2023-03-24T02:55:05;3.70;;;3.40;;
4450;SDS011;2238;50.180;9.230;2023-03-24T02:58:48;3.53;;;3.23;;
4450;SDS011;2238;50.180;9.230;2023-03-24T03:01:59;4.10;;;3.80;;
4450;SDS011;2238;50.180;9.230;2023-03-24T03:05:12;3.70;;;3.40;;
4450;SDS011;2238;50.180;9.230;2023-03-24T03:08:16;4.20;;;3.90;;
4450;SDS011;2238;50.180;9.230;2023-03-24T03:11:20;3.93;;;3.47;;
4450;SDS011;2238;50.180;9.230;2023-03-24T03:14:26;3.73;;;3.43;;
4450;SDS011;2238;50.180;9.230;2023-03-24T03:17:35;4.47;;;3.80;;
4450;SDS011;2238;50.180;9.230;2023-03-24T03:20:41;5.77;;;3.73;;
4450;SDS011;2238;50.180;9.230;2023-03-24T03:24:02;5.70;;;3.60;;
4450;SDS011;2238;50.180;9.230;2023-03-24T03:27:08;4.03;;;3.63;;
4450;SDS011;2238;50.180;9.230;2023-03-24T03:30:15;5.97;;;3.70;;
4450;SDS011;2238;50.180;9.230;2023-03-24T03:33:21;3.83;;;3.53;;
4450;SDS011;2238;50.180;9.230;2023-03-24T03:36:27;5.53;;;3.67;;
4450;SDS011;2238;50.180;9.230;2023-03-24T03:39:36;3.63;;;3.20;;
4450;SDS011;2238;50.180;9.230;2023-03-24T03:42:42;8.10;;;3.70;;
4450;SDS011;2238;50.180;9.230;2023-03-24T03:45:44;4.07;;;3.77;;
4450;SDS011;2238;50.180;9.230;2023-03-24T03:48:45;3.17;;;2.97;;
4450;SDS011;2238;50.180;9.230;2023-03-24T03:51:46;3.33;;;3.03;;
4450;SDS011;2238;50.180;9.230;2023-03-24T03:54:46;5.93;;;3.47;;
4450;SDS011;2238;50.180;9.230;2023-03-24T03:57:47;5.07;;;3.60;;
4450;SDS011;2238;50.180;9.230;2023-03-24T04:00:48;3.73;;;3.50;;
4450;SDS011;2238;50.180;9.230;2023-03-24T04:03:52;4.97;;;3.53;;
4450;SDS011;2238;50.180;9.230;2023-03-24T04:07:03;3.60;;;3.30;;
4450;SDS011;2238;50.180;9.230;2023-03-24T04:10:47;3.67;;;3.37;;
4450;SDS011;2238;50.180;9.230;2023-03-24T04:37:59;4.80;;;4.40;;
4450;SDS011;2238;50.180;9.230;2023-03-24T04:41:03;4.30;;;3.90;;
4450;SDS011;2238;50.180;9.230;2023-03-24T04:44:05;5.83;;;4.20;;
4450;SDS011;2238;50.180;9.230;2023-03-24T04:47:06;5.40;;;4.70;;
4450;SDS011;2238;50.180;9.230;2023-03-24T04:50:08;5.53;;;4.60;;
4450;SDS011;2238;50.180;9.230;2023-03-24T04:53:10;8.27;;;5.13;;
4450;SDS011;2238;50.180;9.230;2023-03-24T04:59:49;5.50;;;5.00;;
4450;SDS011;2238;50.180;9.230;2023-03-24T05:02:51;5.33;;;4.83;;
4450;SDS011;2238;50.180;9.230;2023-03-24T05:05:52;5.77;;;5.27;;
4450;SDS011;2238;50.180;9.230;2023-03-24T05:08:52;5.80;;;5.20;;
4450;SDS011;2238;50.180;9.230;2023-03-24T05:11:53;6.57;;;5.33;;
4450;SDS011;2238;50.180;9.230;2023-03-24T05:14:54;6.00;;;5.40;;
4450;SDS011;2238;50.180;9.230;2023-03-24T05:17:55;6.80;;;6.20;;
4450;SDS011;2238;50.180;9.230;2023-03-24T05:20:55;9.13;;;5.70;;
4450;SDS011;2238;50.180;9.230;2023-03-24T05:23:56;6.40;;;5.80;;
4450;SDS011;2238;50.180;9.230;2023-03-24T05:26:57;6.50;;;5.90;;
4450;SDS011;2238;50.180;9.230;2023-03-24T05:29:57;6.83;;;6.20;;
4450;SDS011;2238;50.180;9.230;2023-03-24T05:32:58;6.10;;;5.60;;
4450;SDS011;2238;50.180;9.230;2023-03-24T05:35:58;6.97;;;6.27;;
4450;SDS011;2238;50.180;9.230;2023-03-24T05:38:59;6.33;;;5.73;;
4450;SDS011;2238;50.180;9.230;2023-03-24T05:42:00;6.93;;;6.30;;
4450;SDS011;2238;50.180;9.230;2023-03-24T05:45:00;5.47;;;4.90;;
4450;SDS011;2238;50.180;9.230;2023-03-24T05:48:02;6.57;;;5.93;;
4450;SDS011;2238;50.180;9.230;2023-03-24T05:51:03;7.17;;;6.50;;
4450;SDS011;2238;50.180;9.230;2023-03-24T05:54:04;6.60;;;6.00;;
4450;SDS011;2238;50.180;9.230;2023-03-24T05:57:05;8.87;;;6.40;;
4450;SDS011;2238;50.180;9.230;2023-03-24T06:00:09;8.07;;;6.97;;
4450;SDS011;2238;50.180;9.230;2023-03-24T06:03:15;7.87;;;7.07;;
4450;SDS011;2238;50.180;9.230;2023-03-24T06:06:16;6.73;;;6.20;;
4450;SDS011;2238;50.180;9.230;2023-03-24T06:09:17;6.80;;;6.20;;
4450;SDS011;2238;50.180;9.230;2023-03-24T06:12:18;5.30;;;4.80;;
4450;SDS011;2238;50.180;9.230;2023-03-24T06:15:21;5.67;;;5.17;;
4450;SDS011;2238;50.180;9.230;2023-03-24T06:18:23;5.53;;;5.03;;
4450;SDS011;2238;50.180;9.230;2023-03-24T06:21:25;5.57;;;5.07;;
4450;SDS011;2238;50.180;9.230;2023-03-24T06:24:29;4.73;;;4.27;;
4450;SDS011;2238;50.180;9.230;2023-03-24T06:27:30;5.43;;;4.37;;
4450;SDS011;2238;50.180;9.230;2023-03-24T06:30:30;4.23;;;3.80;;
4450;SDS011;2238;50.180;9.230;2023-03-24T06:33:31;7.20;;;4.10;;
4450;SDS011;2238;50.180;9.230;2023-03-24T06:36:32;4.47;;;4.00;;
4450;SDS011;2238;50.180;9.230;2023-03-24T06:39:33;4.13;;;3.70;;
4450;SDS011;2238;50.180;9.230;2023-03-24T06:42:34;4.93;;;3.27;;
4450;SDS011;2238;50.180;9.230;2023-03-24T06:45:35;3.70;;;3.40;;
4450;SDS011;2238;50.180;9.230;2023-03-24T06:48:38;3.60;;;3.30;;
4450;SDS011;2238;50.180;9.230;2023-03-24T06:51:39;4.23;;;3.83;;
4450;SDS011;2238;50.180;9.230;2023-03-24T06:54:39;4.67;;;4.03;;
4450;SDS011;2238;50.180;9.230;2023-03-24T06:57:40;5.17;;;4.33;;
4450;SDS011;2238;50.180;9.230;2023-03-24T07:00:41;4.43;;;4.03;;
4450;SDS011;2238;50.180;9.230;2023-03-24T07:03:41;4.30;;;3.90;;
4450;SDS011;2238;50.180;9.230;2023-03-24T07:06:42;4.27;;;3.90;;
4450;SDS011;2238;50.180;9.230;2023-03-24T07:09:44;4.30;;;3.67;;
4450;SDS011;2238;50.180;9.230;2023-03-24T07:12:44;3.50;;;3.20;;
4450;SDS011;2238;50.180;9.230;2023-03-24T07:15:46;3.60;;;3.33;;
4450;SDS011;2238;50.180;9.230;2023-03-24T07:18:47;3.80;;;3.40;;
4450;SDS011;2238;50.180;9.230;2023-03-24T07:21:48;3.90;;;3.60;;
4450;SDS011;2238;50.180;9.230;2023-03-24T07:24:49;3.77;;;3.47;;
4450;SDS011;2238;50.180;9.230;2023-03-24T07:27:52;3.47;;;3.20;;
4450;SDS011;2238;50.180;9.230;2023-03-24T07:30:54;3.60;;;3.30;;
4450;SDS011;2238;50.180;9.230;2023-03-24T07:33:55;4.23;;;3.87;;
4450;SDS011;2238;50.180;9.230;2023-03-24T07:36:56;3.90;;;3.60;;
4450;SDS011;2238;50.180;9.230;2023-03-24T07:39:56;3.40;;;3.20;;
4450;SDS011;2238;50.180;9.230;2023-03-24T07:43:01;3.50;;;3.20;;
4450;SDS011;2238;50.180;9.230;2023-03-24T07:46:04;4.00;;;3.70;;
4450;SDS011;2238;50.180;9.230;2023-03-24T07:49:05;3.40;;;3.10;;
4450;SDS011;2238;50.180;9.230;2023-03-24T07:52:05;3.67;;;3.37;;
4450;SDS011;2238;50.180;9.230;2023-03-24T07:55:07;3.60;;;3.30;;
4450;SDS011;2238;50.180;9.230;2023-03-24T07:58:11;4.00;;;3.60;;
4450;SDS011;2238;50.180;9.230;2023-03-24T08:01:12;4.23;;;3.83;;
4450;SDS011;2238;50.180;9.230;2023-03-24T08:04:13;4.03;;;3.73;;
4450;SDS011;2238;50.180;9.230;2023-03-24T08:07:13;4.70;;;3.70;;
4450;SDS011;2238;50.180;9.230;2023-03-24T08:10:14;4.03;;;3.67;;
4450;SDS011;2238;50.180;9.230;2023-03-24T08:13:15;4.80;;;4.30;;
4450;SDS011;2238;50.180;9.230;2023-03-24T08:16:17;5.07;;;4.40;;
4450;SDS011;2238;50.180;9.230;2023-03-24T08:19:17;6.20;;;5.30;;
4450;SDS011;2238;50.180;9.230;2023-03-24T08:22:18;6.03;;;5.40;;
4450;SDS011;2238;50.180;9.230;2023-03-24T08:25:19;5.13;;;4.63;;
4450;SDS011;2238;50.180;9.230;2023-03-24T08:28:21;6.20;;;5.67;;
4450;SDS011;2238;50.180;9.230;2023-03-24T08:31:22;7.00;;;6.30;;
4450;SDS011;2238;50.180;9.230;2023-03-24T08:34:22;7.07;;;5.47;;
4450;SDS011;2238;50.180;9.230;2023-03-24T08:37:23;8.23;;;7.37;;
4450;SDS011;2238;50.180;9.230;2023-03-24T08:40:24;8.43;;;6.80;;
4450;SDS011;2238;50.180;9.230;2023-03-24T08:43:28;9.70;;;7.57;;
4450;SDS011;2238;50.180;9.230;2023-03-24T08:46:30;7.77;;;6.90;;
4450;SDS011;2238;50.180;9.230;2023-03-24T08:49:31;10.70;;;7.83;;
4450;SDS011;2238;50.180;9.230;2023-03-24T08:52:31;8.93;;;8.10;;
4450;SDS011;2238;50.180;9.230;2023-03-24T08:55:32;8.60;;;7.70;;
4450;SDS011;2238;50.180;9.230;2023-03-24T08:58:33;8.60;;;7.70;;
4450;SDS011;2238;50.180;9.230;2023-03-24T09:01:33;13.10;;;11.77;;
4450;SDS011;2238;50.180;9.230;2023-03-24T09:04:34;22.60;;;20.30;;
4450;SDS011;2238;50.180;9.230;2023-03-24T09:07:35;10.80;;;9.80;;
4450;SDS011;2238;50.180;9.230;2023-03-24T09:10:37;10.00;;;9.00;;
4450;SDS011;2238;50.180;9.230;2023-03-24T09:13:38;13.47;;;12.10;;
4450;SDS011;2238;50.180;9.230;2023-03-24T09:16:39;12.60;;;11.40;;
4450;SDS011;2238;50.180;9.230;2023-03-24T09:19:40;7.57;;;6.57;;
4450;SDS011;2238;50.180;9.230;2023-03-24T09:22:43;7.70;;;7.10;;
4450;SDS011;2238;50.180;9.230;2023-03-24T09:25:46;7.20;;;6.50;;
4450;SDS011;2238;50.180;9.230;2023-03-24T09:28:51;7.73;;;7.00;;
4450;SDS011;2238;50.180;9.230;2023-03-24T09:31:51;7.60;;;6.90;;
4450;SDS011;2238;50.180;9.230;2023-03-24T09:34:52;6.60;;;5.90;;
4450;SDS011;2238;50.180;9.230;2023-03-24T09:37:53;7.17;;;6.47;;
4450;SDS011;2238;50.180;9.230;2023-03-24T09:40:55;7.43;;;6.73;;
4450;SDS011;2238;50.180;9.230;2023-03-24T09:44:09;6.77;;;6.17;;
4450;SDS011;2238;50.180;9.230;2023-03-24T09:50:33;3.50;;;2.70;;
4450;SDS011;2238;50.180;9.230;2023-03-24T09:53:45;3.30;;;3.10;;
4450;SDS011;2238;50.180;9.230;2023-03-24T09:56:53;4.17;;;2.70;;
4450;SDS011;2238;50.180;9.230;2023-03-24T09:59:56;2.43;;;2.20;;
4450;SDS011;2238;50.180;9.230;2023-03-24T10:02:58;3.23;;;2.10;;
4450;SDS011;2238;50.180;9.230;2023-03-24T10:06:26;3.87;;;2.30;;
4450;SDS011;2238;50.180;9.230;2023-03-24T10:09:31;1.80;;;1.50;;
4450;SDS011;2238;50.180;9.230;2023-03-24T10:12:36;1.37;;;1.30;;
4450;SDS011;2238;50.180;9.230;2023-03-24T10:15:58;1.60;;;1.50;;
4450;SDS011;2238;50.180;9.230;2023-03-24T10:19:36;2.40;;;1.70;;
4450;SDS011;2238;50.180;9.230;2023-03-24T10:22:56;2.00;;;1.80;;
4450;SDS011;2238;50.180;9.230;2023-03-24T10:29:29;1.83;;;1.50;;
4450;SDS011;2238;50.180;9.230;2023-03-24T10:32:35;2.70;;;1.53;;
4450;SDS011;2238;50.180;9.230;2023-03-24T10:35:37;1.70;;;1.60;;
4450;SDS011;2238;50.180;9.230;2023-03-24T10:38:43;2.10;;;2.00;;
4450;SDS011;2238;50.180;9.230;2023-03-24T10:41:44;1.97;;;1.77;;
4450;SDS011;2238;50.180;9.230;2023-03-24T10:44:48;2.77;;;2.27;;
4450;SDS011;2238;50.180;9.230;2023-03-24T10:47:52;4.70;;;2.60;;
4450;SDS011;2238;50.180;9.230;2023-03-24T10:50:56;2.43;;;2.23;;
4450;SDS011;2238;50.180;9.230;2023-03-24T10:54:20;2.27;;;1.60;;
4450;SDS011;2238;50.180;9.230;2023-03-24T10:57:25;5.97;;;2.23;;
4450;SDS011;2238;50.180;9.230;2023-03-24T11:00:27;4.50;;;2.57;;
4450;SDS011;2238;50.180;9.230;2023-03-24T11:03:30;3.30;;;2.57;;
4450;SDS011;2238;50.180;9.230;2023-03-24T11:06:33;3.80;;;2.60;;
4450;SDS011;2238;50.180;9.230;2023-03-24T11:09:37;10.57;;;2.90;;
4450;SDS011;2238;50.180;9.230;2023-03-24T11:12:57;5.37;;;3.30;;
4450;SDS011;2238;50.180;9.230;2023-03-24T11:19:21;3.20;;;2.90;;
4450;SDS011;2238;50.180;9.230;2023-03-24T11:22:22;3.73;;;3.20;;
4450;SDS011;2238;50.180;9.230;2023-03-24T11:25:24;11.80;;;7.43;;
4450;SDS011;2238;50.180;9.230;2023-03-24T11:28:27;5.77;;;5.27;;
4450;SDS011;2238;50.180;9.230;2023-03-24T11:31:30;5.80;;;4.80;;
4450;SDS011;2238;50.180;9.230;2023-03-24T11:34:32;8.90;;;8.00;;
4450;SDS011;2238;50.180;9.230;2023-03-24T11:37:37;5.60;;;5.10;;
4450;SDS011;2238;50.180;9.230;2023-03-24T11:40:40;2.40;;;2.20;;
4450;SDS011;2238;50.180;9.230;2023-03-24T11:44:07;5.73;;;2.90;;
4450;SDS011;2238;50.180;9.230;2023-03-24T11:50:28;2.67;;;2.47;;
4450;SDS011;2238;50.180;9.230;2023-03-24T11:53:35;2.73;;;2.53;;
4450;SDS011;2238;50.180;9.230;2023-03-24T11:56:47;12.10;;;7.20;;
4450;SDS011;2238;50.180;9.230;2023-03-24T11:59:56;5.13;;;4.57;;
4450;SDS011;2238;50.180;9.230;2023-03-24T12:13:16;2.00;;;1.80;;
4450;SDS011;2238;50.180;9.230;2023-03-24T12:26:41;3.30;;;1.90;;
4450;SDS011;2238;50.180;9.230;2023-03-24T12:33:06;4.03;;;2.00;;
4450;SDS011;2238;50.180;9.230;2023-03-24T12:36:45;2.40;;;2.20;;
4450;SDS011;2238;50.180;9.230;2023-03-24T12:40:04;3.50;;;2.60;;
4450;SDS011;2238;50.180;9.230;2023-03-24T12:56:25;5.93;;;3.93;;
4450;SDS011;2238;50.180;9.230;2023-03-24T12:59:37;14.00;;;8.37;;
4450;SDS011;2238;50.180;9.230;2023-03-24T13:02:49;2.03;;;1.93;;
4450;SDS011;2238;50.180;9.230;2023-03-24T13:05:54;4.10;;;1.80;;
4450;SDS011;2238;50.180;9.230;2023-03-24T13:09:05;2.10;;;1.50;;
4450;SDS011;2238;50.180;9.230;2023-03-24T13:12:12;2.33;;;1.50;;
4450;SDS011;2238;50.180;9.230;2023-03-24T13:18:53;2.80;;;2.60;;
4450;SDS011;2238;50.180;9.230;2023-03-24T13:21:58;2.80;;;2.10;;
4450;SDS011;2238;50.180;9.230;2023-03-24T13:25:01;2.90;;;2.10;;
4450;SDS011;2238;50.180;9.230;2023-03-24T13:28:12;4.10;;;1.90;;
4450;SDS011;2238;50.180;9.230;2023-03-24T13:31:21;3.70;;;1.40;;
4450;SDS011;2238;50.180;9.230;2023-03-24T13:34:33;4.43;;;1.40;;
4450;SDS011;2238;50.180;9.230;2023-03-24T13:37:38;3.63;;;1.77;;
4450;SDS011;2238;50.180;9.230;2023-03-24T13:40:46;4.00;;;1.93;;
4450;SDS011;2238;50.180;9.230;2023-03-24T13:44:34;1.83;;;1.60;;
4450;SDS011;2238;50.180;9.230;2023-03-24T13:47:18;1.70;;;1.60;;
4450;SDS011;2238;50.180;9.230;2023-03-24T13:50:19;2.00;;;1.53;;
4450;SDS011;2238;50.180;9.230;2023-03-24T13:53:24;2.93;;;2.00;;
4450;SDS011;2238;50.180;9.230;2023-03-24T13:56:39;4.93;;;1.93;;
4450;SDS011;2238;50.180;9.230;2023-03-24T14:00:15;2.37;;;1.40;;
4450;SDS011;2238;50.180;9.230;2023-03-24T14:03:31;9.20;;;1.83;;
4450;SDS011;2238;50.180;9.230;2023-03-24T14:06:56;4.63;;;1.57;;
4450;SDS011;2238;50.180;9.230;2023-03-24T14:09:59;3.53;;;1.63;;
4450;SDS011;2238;50.180;9.230;2023-03-24T14:16:25;2.90;;;2.20;;
4450;SDS011;2238;50.180;9.230;2023-03-24T14:19:37;1.90;;;1.70;;
4450;SDS011;2238;50.180;9.230;2023-03-24T14:22:45;2.57;;;1.40;;
4450;SDS011;2238;50.180;9.230;2023-03-24T14:25:53;2.50;;;1.53;;
4450;SDS011;2238;50.180;9.230;2023-03-24T14:28:55;1.60;;;1.50;;
4450;SDS011;2238;50.180;9.230;2023-03-24T14:31:59;2.80;;;1.70;;
4450;SDS011;2238;50.180;9.230;2023-03-24T14:35:01;1.60;;;1.50;;
4450;SDS011;2238;50.180;9.230;2023-03-24T14:38:04;3.50;;;2.60;;
4450;SDS011;2238;50.180;9.230;2023-03-24T14:41:26;3.10;;;1.50;;
4450;SDS011;2238;50.180;9.230;2023-03-24T14:47:58;2.40;;;1.53;;
4450;SDS011;2238;50.180;9.230;2023-03-24T14:51:02;2.60;;;1.80;;
4450;SDS011;2238;50.180;9.230;2023-03-24T14:54:28;2.07;;;1.50;;
4450;SDS011;2238;50.180;9.230;2023-03-24T14:57:43;4.10;;;1.50;;
4450;SDS011;2238;50.180;9.230;2023-03-24T15:00:50;4.43;;;1.50;;
4450;SDS011;2238;50.180;9.230;2023-03-24T15:04:05;2.20;;;1.80;;
4450;SDS011;2238;50.180;9.230;2023-03-24T15:07:10;1.80;;;1.70;;
4450;SDS011;2238;50.180;9.230;2023-03-24T15:10:16;4.30;;;1.73;;
4450;SDS011;2238;50.180;9.230;2023-03-24T15:13:38;1.90;;;1.50;;
4450;SDS011;2238;50.180;9.230;2023-03-24T15:16:49;2.33;;;2.10;;
4450;SDS011;2238;50.180;9.230;2023-03-24T15:19:53;2.40;;;1.57;;
4450;SDS011;2238;50.180;9.230;2023-03-24T15:22:54;4.57;;;2.13;;
4450;SDS011;2238;50.180;9.230;2023-03-24T15:25:55;2.00;;;1.80;;
4450;SDS011;2238;50.180;9.230;2023-03-24T15:28:59;3.53;;;1.97;;
4450;SDS011;2238;50.180;9.230;2023-03-24T15:32:04;2.13;;;1.83;;
4450;SDS011;2238;50.180;9.230;2023-03-24T15:35:05;3.63;;;2.30;;
4450;SDS011;2238;50.180;9.230;2023-03-24T15:38:26;4.43;;;2.70;;
4450;SDS011;2238;50.180;9.230;2023-03-24T15:41:29;4.17;;;2.50;;
4450;SDS011;2238;50.180;9.230;2023-03-24T15:44:29;6.10;;;2.07;;
4450;SDS011;2238;50.180;9.230;2023-03-24T15:47:36;2.50;;;2.00;;
4450;SDS011;2238;50.180;9.230;2023-03-24T15:50:40;3.30;;;2.30;;
4450;SDS011;2238;50.180;9.230;2023-03-24T15:53:56;6.30;;;2.00;;
4450;SDS011;2238;50.180;9.230;2023-03-24T15:56:58;2.97;;;1.90;;
4450;SDS011;2238;50.180;9.230;2023-03-24T16:00:17;2.17;;;1.90;;
4450;SDS011;2238;50.180;9.230;2023-03-24T16:03:22;2.83;;;2.00;;
4450;SDS011;2238;50.180;9.230;2023-03-24T16:06:27;1.97;;;1.77;;
4450;SDS011;2238;50.180;9.230;2023-03-24T16:09:36;5.43;;;1.80;;
4450;SDS011;2238;50.180;9.230;2023-03-24T16:12:39;3.73;;;2.00;;
4450;SDS011;2238;50.180;9.230;2023-03-24T16:15:45;1.90;;;1.70;;
4450;SDS011;2238;50.180;9.230;2023-03-24T16:19:06;1.30;;;1.20;;
4450;SDS011;2238;50.180;9.230;2023-03-24T16:22:09;1.70;;;1.50;;
4450;SDS011;2238;50.180;9.230;2023-03-24T16:25:10;2.90;;;1.83;;
4450;SDS011;2238;50.180;9.230;2023-03-24T16:28:12;2.30;;;1.70;;
4450;SDS011;2238;50.180;9.230;2023-03-24T16:31:21;3.50;;;1.90;;
4450;SDS011;2238;50.180;9.230;2023-03-24T16:34:25;1.63;;;1.47;;
4450;SDS011;2238;50.180;9.230;2023-03-24T16:37:26;2.47;;;2.13;;
4450;SDS011;2238;50.180;9.230;2023-03-24T16:40:30;6.97;;;2.23;;
4450;SDS011;2238;50.180;9.230;2023-03-24T16:43:39;1.80;;;1.70;;
4450;SDS011;2238;50.180;9.230;2023-03-24T16:46:40;2.07;;;1.87;;
4450;SDS011;2238;50.180;9.230;2023-03-24T16:49:40;2.27;;;2.00;;
4450;SDS011;2238;50.180;9.230;2023-03-24T16:52:41;2.97;;;2.60;;
4450;SDS011;2238;50.180;9.230;2023-03-24T16:55:42;3.80;;;2.50;;
4450;SDS011;2238;50.180;9.230;2023-03-24T16:58:43;4.73;;;2.60;;
4450;SDS011;2238;50.180;9.230;2023-03-24T17:01:46;2.70;;;2.10;;
4450;SDS011;2238;50.180;9.230;2023-03-24T17:04:51;3.60;;;2.80;;
4450;SDS011;2238;50.180;9.230;2023-03-24T17:07:52;2.27;;;2.07;;
4450;SDS011;2238;50.180;9.230;2023-03-24T17:10:53;2.60;;;2.27;;
4450;SDS011;2238;50.180;9.230;2023-03-24T17:13:54;4.47;;;2.20;;
4450;SDS011;2238;50.180;9.230;2023-03-24T17:17:00;2.23;;;1.80;;
4450;SDS011;2238;50.180;9.230;2023-03-24T17:20:03;5.53;;;2.70;;
4450;SDS011;2238;50.180;9.230;2023-03-24T17:23:05;2.37;;;2.20;;
4450;SDS011;2238;50.180;9.230;2023-03-24T17:26:07;3.43;;;2.60;;
4450;SDS011;2238;50.180;9.230;2023-03-24T17:29:08;4.50;;;2.60;;
4450;SDS011;2238;50.180;9.230;2023-03-24T17:32:11;3.93;;;2.43;;
4450;SDS011;2238;50.180;9.230;2023-03-24T17:35:12;2.33;;;2.13;;
4450;SDS011;2238;50.180;9.230;2023-03-24T17:38:14;4.03;;;1.90;;
4450;SDS011;2238;50.180;9.230;2023-03-24T17:41:15;2.00;;;1.83;;
4450;SDS011;2238;50.180;9.230;2023-03-24T17:44:16;2.30;;;2.07;;
4450;SDS011;2238;50.180;9.230;2023-03-24T17:47:17;4.67;;;2.30;;
4450;SDS011;2238;50.180;9.230;2023-03-24T17:50:17;4.27;;;2.33;;
4450;SDS011;2238;50.180;9.230;2023-03-24T17:53:18;2.73;;;2.33;;
4450;SDS011;2238;50.180;9.230;2023-03-24T17:56:25;5.80;;;2.87;;
4450;SDS011;2238;50.180;9.230;2023-03-24T17:59:25;8.30;;;3.53;;
4450;SDS011;2238;50.180;9.230;2023-03-24T18:02:26;4.80;;;3.07;;
4450;SDS011;2238;50.180;9.230;2023-03-24T18:05:27;4.20;;;2.50;;
4450;SDS011;2238;50.180;9.230;2023-03-24T18:08:28;5.33;;;2.30;;
4450;SDS011;2238;50.180;9.230;2023-03-24T18:11:29;4.20;;;1.70;;
4450;SDS011;2238;50.180;9.230;2023-03-24T18:14:29;3.27;;;2.50;;
4450;SDS011;2238;50.180;9.230;2023-03-24T18:17:30;3.13;;;1.90;;
4450;SDS011;2238;50.180;9.230;2023-03-24T18:20:31;9.00;;;2.17;;
4450;SDS011;2238;50.180;9.230;2023-03-24T18:23:32;3.63;;;2.53;;
4450;SDS011;2238;50.180;9.230;2023-03-24T18:26:33;5.60;;;2.80;;
4450;SDS011;2238;50.180;9.230;2023-03-24T18:29:35;4.50;;;3.47;;
4450;SDS011;2238;50.180;9.230;2023-03-24T18:32:38;4.37;;;3.20;;
4450;SDS011;2238;50.180;9.230;2023-03-24T18:35:39;4.20;;;1.87;;
4450;SDS011;2238;50.180;9.230;2023-03-24T18:38:40;4.30;;;2.37;;
4450;SDS011;2238;50.180;9.230;2023-03-24T18:41:41;5.73;;;3.90;;
4450;SDS011;2238;50.180;9.230;2023-03-24T18:44:42;4.17;;;2.77;;
4450;SDS011;2238;50.180;9.230;2023-03-24T18:47:44;4.07;;;2.40;;
4450;SDS011;2238;50.180;9.230;2023-03-24T18:50:45;2.43;;;2.27;;
4450;SDS011;2238;50.180;9.230;2023-03-24T18:53:48;2.23;;;2.03;;
4450;SDS011;2238;50.180;9.230;2023-03-24T18:56:49;3.70;;;2.90;;
4450;SDS011;2238;50.180;9.230;2023-03-24T18:59:50;4.43;;;2.27;;
4450;SDS011;2238;50.180;9.230;2023-03-24T19:02:50;9.20;;;2.90;;
4450;SDS011;2238;50.180;9.230;2023-03-24T19:05:52;3.10;;;2.60;;
4450;SDS011;2238;50.180;9.230;2023-03-24T19:08:52;6.17;;;3.50;;
4450;SDS011;2238;50.180;9.230;2023-03-24T19:11:53;5.20;;;3.10;;
4450;SDS011;2238;50.180;9.230;2023-03-24T19:14:53;3.60;;;2.57;;
4450;SDS011;2238;50.180;9.230;2023-03-24T19:17:55;3.10;;;2.90;;
4450;SDS011;2238;50.180;9.230;2023-03-24T19:20:57;5.80;;;3.20;;
4450;SDS011;2238;50.180;9.230;2023-03-24T19:23:58;5.17;;;3.00;;
4450;SDS011;2238;50.180;9.230;2023-03-24T19:26:58;4.13;;;3.17;;
4450;SDS011;2238;50.180;9.230;2023-03-24T19:29:59;4.07;;;3.10;;
4450;SDS011;2238;50.180;9.230;2023-03-24T19:33:03;3.10;;;2.80;;
4450;SDS011;2238;50.180;9.230;2023-03-24T19:36:04;4.47;;;3.07;;
4450;SDS011;2238;50.180;9.230;2023-03-24T19:39:07;6.20;;;3.53;;
4450;SDS011;2238;50.180;9.230;2023-03-24T19:42:07;4.00;;;2.80;;
4450;SDS011;2238;50.180;9.230;2023-03-24T19:45:08;3.60;;;3.03;;
4450;SDS011;2238;50.180;9.230;2023-03-24T19:48:10;3.47;;;3.10;;
4450;SDS011;2238;50.180;9.230;2023-03-24T19:51:11;2.83;;;2.50;;
4450;SDS011;2238;50.180;9.230;2023-03-24T19:54:11;6.30;;;2.73;;
4450;SDS011;2238;50.180;9.230;2023-03-24T19:57:12;5.70;;;3.03;;
4450;SDS011;2238;50.180;9.230;2023-03-24T20:00:13;3.60;;;3.00;;
4450;SDS011;2238;50.180;9.230;2023-03-24T20:03:14;4.73;;;3.43;;
4450;SDS011;2238;50.180;9.230;2023-03-24T20:06:14;4.57;;;2.70;;
4450;SDS011;2238;50.180;9.230;2023-03-24T20:09:15;3.27;;;2.53;;
4450;SDS011;2238;50.180;9.230;2023-03-24T20:12:16;4.53;;;2.70;;
4450;SDS011;2238;50.180;9.230;2023-03-24T20:15:17;4.97;;;4.47;;
4450;SDS011;2238;50.180;9.230;2023-03-24T20:18:17;3.63;;;2.37;;
4450;SDS011;2238;50.180;9.230;2023-03-24T20:21:19;4.47;;;2.70;;
4450;SDS011;2238;50.180;9.230;2023-03-24T20:24:23;6.80;;;2.53;;
4450;SDS011;2238;50.180;9.230;2023-03-24T20:27:24;10.20;;;8.20;;
4450;SDS011;2238;50.180;9.230;2023-03-24T20:30:25;7.10;;;4.60;;
4450;SDS011;2238;50.180;9.230;2023-03-24T20:33:27;2.53;;;2.00;;
4450;SDS011;2238;50.180;9.230;2023-03-24T20:36:28;3.13;;;2.03;;
4450;SDS011;2238;50.180;9.230;2023-03-24T20:39:28;1.93;;;1.83;;
4450;SDS011;2238;50.180;9.230;2023-03-24T20:42:29;2.00;;;1.80;;
4450;SDS011;2238;50.180;9.230;2023-03-24T20:45:29;3.07;;;2.40;;
4450;SDS011;2238;50.180;9.230;2023-03-24T20:48:30;3.20;;;2.23;;
4450;SDS011;2238;50.180;9.230;2023-03-24T20:51:31;1.33;;;1.10;;
4450;SDS011;2238;50.180;9.230;2023-03-24T20:54:32;2.50;;;1.60;;
4450;SDS011;2238;50.180;9.230;2023-03-24T20:57:32;1.50;;;1.40;;
4450;SDS011;2238;50.180;9.230;2023-03-24T21:00:33;1.90;;;1.67;;
4450;SDS011;2238;50.180;9.230;2023-03-24T21:03:36;2.70;;;1.93;;
4450;SDS011;2238;50.180;9.230;2023-03-24T21:06:37;1.90;;;1.30;;